Time;durP1;ratioP1;P1;durP2;ratioP2;P2;SDS_P1;SDS_P2;PMS_P1;PMS_P2;Temp;Humidity;BMP_temperature;BMP_pressure;BME280_temperature;BME280_humidity;BME280_pressure;Samples;Min_cycle;Max_cycle;Signal;HPM_P1;HPM_P2
2023/12/27 00:01:18;;;;;;;12.82;2.50;;;4.70;99.90;;;;;;5036162;28;20024;-53
2023/12/27 00:03:44;;;;;;;15.00;2.28;;;4.70;99.90;;;;;;5041912;28;20446;-50
2023/12/27 00:06:09;;;;;;;9.52;1.98;;;4.70;99.90;;;;;;5044390;28;20021;-50
2023/12/27 00:08:35;;;;;;;13.65;2.92;;;4.60;99.90;;;;;;5042614;28;20228;-52
2023/12/27 00:11:02;;;;;;;8.88;2.20;;;4.60;99.90;;;;;;5044972;28;20173;-52
2023/12/27 00:13:28;;;;;;;17.15;2.70;;;4.60;99.90;;;;;;5043957;28;20647;-52
2023/12/27 00:15:53;;;;;;;12.30;2.33;;;4.60;99.90;;;;;;5022836;28;20128;-53
2023/12/27 00:18:19;;;;;;;14.07;2.58;;;4.50;99.90;;;;;;5040617;28;20032;-50
2023/12/27 00:20:47;;;;;;;8.55;2.13;;;4.50;99.90;;;;;;5037056;28;20045;-51
2023/12/27 00:23:13;;;;;;;12.75;2.70;;;4.50;99.90;;;;;;5045379;28;20135;-51
2023/12/27 00:25:39;;;;;;;20.90;2.88;;;4.50;99.90;;;;;;5043709;28;20020;-53
2023/12/27 00:28:05;;;;;;;11.32;2.38;;;4.50;99.90;;;;;;5045034;28;20383;-52
2023/12/27 00:30:31;;;;;;;8.50;2.10;;;4.50;99.90;;;;;;5043844;28;20029;-53
2023/12/27 00:32:57;;;;;;;11.70;2.22;;;4.50;99.90;;;;;;5044022;28;20025;-52
2023/12/27 00:35:22;;;;;;;11.85;3.25;;;4.50;99.90;;;;;;5044451;28;20021;-53
2023/12/27 00:37:48;;;;;;;7.75;1.98;;;4.50;99.90;;;;;;5035877;28;20104;-53
2023/12/27 00:40:14;;;;;;;14.40;2.20;;;4.40;99.90;;;;;;5045127;28;20013;-53
2023/12/27 00:42:40;;;;;;;13.75;2.65;;;4.40;99.90;;;;;;5043680;28;20087;-52
2023/12/27 00:45:06;;;;;;;16.27;2.22;;;4.40;99.90;;;;;;5044884;28;20028;-52
2023/12/27 00:47:32;;;;;;;13.70;2.70;;;4.40;99.90;;;;;;5043657;28;20025;-50
2023/12/27 00:49:57;;;;;;;7.75;2.17;;;4.40;99.90;;;;;;5046440;28;20541;-53
2023/12/27 00:52:23;;;;;;;14.07;2.60;;;4.40;99.90;;;;;;5049045;28;20025;-53
2023/12/27 00:54:48;;;;;;;14.55;2.20;;;4.40;99.90;;;;;;5040475;28;20022;-53
2023/12/27 00:57:14;;;;;;;16.85;2.20;;;4.40;99.90;;;;;;5048650;28;20044;-53
2023/12/27 00:59:40;;;;;;;10.98;2.85;;;4.40;99.90;;;;;;5047405;28;20067;-49
2023/12/27 01:02:06;;;;;;;15.15;2.60;;;4.40;99.90;;;;;;5048903;28;20021;-53
2023/12/27 01:04:33;;;;;;;12.45;2.65;;;4.40;99.90;;;;;;5047738;28;20017;-54
2023/12/27 01:06:59;;;;;;;14.70;2.70;;;4.30;99.90;;;;;;5047969;28;20032;-51
2023/12/27 01:09:25;;;;;;;13.52;2.83;;;4.30;99.90;;;;;;5048742;28;20064;-52
2023/12/27 01:11:51;;;;;;;8.77;2.17;;;4.30;99.90;;;;;;5047418;28;20014;-51
2023/12/27 01:14:19;;;;;;;8.00;2.00;;;4.30;99.90;;;;;;5049195;28;20429;-52
2023/12/27 01:16:44;;;;;;;9.60;2.05;;;4.30;99.90;;;;;;5029010;28;20120;-52
2023/12/27 01:19:11;;;;;;;15.32;2.80;;;4.30;99.90;;;;;;5030737;28;20546;-51
2023/12/27 01:21:36;;;;;;;11.32;2.22;;;4.30;99.90;;;;;;5047396;28;20048;-53
2023/12/27 01:24:02;;;;;;;12.85;2.42;;;4.20;99.90;;;;;;5030634;28;20130;-51
2023/12/27 01:26:28;;;;;;;11.70;2.17;;;4.20;99.90;;;;;;5048395;28;20033;-52
2023/12/27 01:28:54;;;;;;;5.80;1.77;;;4.20;99.90;;;;;;5040086;28;20033;-52
2023/12/27 01:31:19;;;;;;;9.20;2.25;;;4.20;99.90;;;;;;5048844;28;20025;-50
2023/12/27 01:33:45;;;;;;;10.05;2.22;;;4.20;99.90;;;;;;5039972;28;20033;-52
2023/12/27 01:36:11;;;;;;;10.30;2.50;;;4.20;99.90;;;;;;5048559;28;20543;-52
2023/12/27 01:38:36;;;;;;;6.68;2.60;;;4.10;99.90;;;;;;5047667;28;20033;-51
2023/12/27 01:41:02;;;;;;;9.82;2.33;;;4.20;99.90;;;;;;5048620;28;20025;-50
2023/12/27 01:43:28;;;;;;;8.35;1.70;;;4.20;99.90;;;;;;5048426;28;20025;-49
2023/12/27 01:45:54;;;;;;;22.08;3.20;;;4.10;99.90;;;;;;5048717;28;20100;-50
2023/12/27 01:48:20;;;;;;;17.08;2.65;;;4.10;99.90;;;;;;5048907;28;20053;-52
2023/12/27 01:50:51;;;;;;;14.80;2.15;;;4.10;99.90;;;;;;5030958;28;20041;-52
2023/12/27 01:53:18;;;;;;;10.27;2.53;;;4.10;99.90;;;;;;5044612;28;20068;-52
2023/12/27 01:55:45;;;;;;;16.70;2.90;;;4.10;99.90;;;;;;5046653;28;20079;-49
2023/12/27 01:58:12;;;;;;;13.98;2.95;;;4.10;99.90;;;;;;5049025;28;20059;-50
2023/12/27 02:00:41;;;;;;;14.25;3.55;;;4.10;99.90;;;;;;5048573;28;20036;-50
2023/12/27 02:03:07;;;;;;;15.05;2.47;;;4.10;99.90;;;;;;5049958;28;20147;-53
2023/12/27 02:05:34;;;;;;;15.95;2.58;;;4.10;99.90;;;;;;5049237;28;20391;-50
2023/12/27 02:08:00;;;;;;;12.18;2.42;;;4.10;99.90;;;;;;5041331;28;20013;-49
2023/12/27 02:10:27;;;;;;;13.68;2.38;;;4.10;99.90;;;;;;5031527;28;20032;-52
2023/12/27 02:12:54;;;;;;;15.32;2.97;;;4.10;99.90;;;;;;5030742;28;20126;-50
2023/12/27 02:15:20;;;;;;;13.25;2.33;;;4.10;99.90;;;;;;5049303;28;20041;-52
2023/12/27 02:17:45;;;;;;;9.23;2.70;;;4.10;99.90;;;;;;5048931;28;20482;-52
2023/12/27 02:20:11;;;;;;;21.60;3.42;;;4.00;99.90;;;;;;5031982;28;20477;-50
2023/12/27 02:22:38;;;;;;;16.08;4.20;;;4.00;99.90;;;;;;5031147;28;20037;-50
2023/12/27 02:25:05;;;;;;;14.77;2.35;;;4.10;99.90;;;;;;5049479;28;20020;-50
2023/12/27 02:27:31;;;;;;;12.77;2.95;;;4.00;99.90;;;;;;5031096;28;20454;-52
2023/12/27 02:29:56;;;;;;;16.45;2.40;;;4.00;99.90;;;;;;5049303;28;20489;-51
2023/12/27 02:32:23;;;;;;;13.35;2.63;;;4.00;99.90;;;;;;5049544;28;20033;-53
2023/12/27 02:34:49;;;;;;;13.75;2.72;;;4.00;99.90;;;;;;5049403;28;20016;-53
2023/12/27 02:37:15;;;;;;;15.82;3.35;;;4.00;99.90;;;;;;5048989;28;20120;-53
2023/12/27 02:39:40;;;;;;;14.60;2.38;;;4.00;99.90;;;;;;5048184;28;20028;-49
2023/12/27 02:42:06;;;;;;;11.85;2.20;;;4.00;99.90;;;;;;5024271;28;20075;-53
2023/12/27 02:44:31;;;;;;;16.42;2.30;;;4.00;99.90;;;;;;5046602;28;20029;-52
2023/12/27 02:46:57;;;;;;;12.52;2.85;;;4.00;99.90;;;;;;5032364;28;20674;-50
2023/12/27 02:49:23;;;;;;;12.63;2.33;;;4.00;99.90;;;;;;5049604;28;20029;-52
2023/12/27 02:51:48;;;;;;;13.07;2.83;;;4.00;99.90;;;;;;5023849;28;20160;-53
2023/12/27 02:54:14;;;;;;;12.52;2.72;;;3.90;99.90;;;;;;5029248;28;20037;-53
2023/12/27 02:56:40;;;;;;;11.10;2.35;;;3.90;99.90;;;;;;5028545;28;20411;-52
2023/12/27 02:59:08;;;;;;;15.65;3.47;;;3.90;99.90;;;;;;5022183;28;20109;-52
2023/12/27 03:01:33;;;;;;;11.15;2.63;;;3.90;99.90;;;;;;5033193;28;20104;-52
2023/12/27 03:03:59;;;;;;;8.20;2.22;;;3.90;99.90;;;;;;5029430;28;20126;-51
2023/12/27 03:06:25;;;;;;;11.80;2.72;;;3.90;99.90;;;;;;5029303;28;20026;-51
2023/12/27 03:08:53;;;;;;;17.25;2.35;;;3.90;99.90;;;;;;5029217;28;20433;-51
2023/12/27 03:11:19;;;;;;;13.27;2.30;;;3.90;99.90;;;;;;5029661;28;20037;-50
2023/12/27 03:13:45;;;;;;;13.23;2.45;;;3.90;99.90;;;;;;5029481;28;20037;-52
2023/12/27 03:16:10;;;;;;;8.93;2.03;;;3.90;99.90;;;;;;5028582;28;20025;-52
2023/12/27 03:18:37;;;;;;;9.10;1.90;;;3.80;99.90;;;;;;5010206;28;20074;-51
2023/12/27 03:21:03;;;;;;;9.60;2.38;;;3.80;99.90;;;;;;5028511;28;20021;-51
2023/12/27 03:23:29;;;;;;;11.90;2.22;;;3.80;99.90;;;;;;5029270;28;20021;-49
2023/12/27 03:25:55;;;;;;;15.38;2.53;;;3.80;99.90;;;;;;5029488;28;20524;-50
2023/12/27 03:28:21;;;;;;;12.43;2.28;;;3.80;99.90;;;;;;5029599;28;20513;-53
2023/12/27 03:30:46;;;;;;;10.73;2.42;;;3.80;99.90;;;;;;5029551;28;20033;-52
2023/12/27 03:33:12;;;;;;;9.75;2.05;;;3.70;99.90;;;;;;5019875;28;20068;-52
2023/12/27 03:35:37;;;;;;;14.00;2.20;;;3.70;99.90;;;;;;5029834;28;20025;-50
2023/12/27 03:38:03;;;;;;;15.13;2.85;;;3.70;99.90;;;;;;5021494;28;20075;-50
2023/12/27 03:40:29;;;;;;;10.25;2.15;;;3.70;99.90;;;;;;5029570;28;20023;-51
2023/12/27 03:42:54;;;;;;;14.00;2.42;;;3.70;99.90;;;;;;5029985;28;20483;-53
2023/12/27 03:45:20;;;;;;;9.05;2.20;;;3.70;99.90;;;;;;5029517;28;20033;-51
2023/12/27 03:47:45;;;;;;;12.63;2.15;;;3.70;99.90;;;;;;5029154;28;20026;-53
2023/12/27 03:50:14;;;;;;;12.15;2.60;;;3.70;99.90;;;;;;5029163;28;20025;-52
2023/12/27 03:52:42;;;;;;;11.45;2.08;;;3.70;99.90;;;;;;5029946;28;20021;-50
2023/12/27 03:55:08;;;;;;;12.23;2.20;;;3.70;99.90;;;;;;5011849;28;20522;-50
2023/12/27 03:57:34;;;;;;;16.33;2.30;;;3.70;99.90;;;;;;5028537;28;20109;-51
2023/12/27 03:59:59;;;;;;;17.05;2.22;;;3.60;99.90;;;;;;5027901;28;20462;-52
2023/12/27 04:02:25;;;;;;;11.32;2.38;;;3.60;99.90;;;;;;5028268;28;20029;-51
2023/12/27 04:04:50;;;;;;;8.23;1.98;;;3.60;99.90;;;;;;5027959;28;20025;-50
2023/12/27 04:07:16;;;;;;;8.30;2.17;;;3.70;99.90;;;;;;5011210;28;20451;-49
2023/12/27 04:09:42;;;;;;;14.75;2.60;;;3.60;99.90;;;;;;5027703;28;20265;-50
2023/12/27 04:12:08;;;;;;;11.57;2.45;;;3.60;99.90;;;;;;5027556;28;20032;-50
2023/12/27 04:14:34;;;;;;;14.52;2.35;;;3.70;99.90;;;;;;5028095;28;20494;-52
2023/12/27 04:16:59;;;;;;;15.40;2.47;;;3.70;99.90;;;;;;5029190;28;20033;-50
2023/12/27 04:19:25;;;;;;;14.48;2.78;;;3.60;99.90;;;;;;5012300;28;20392;-51
2023/12/27 04:21:51;;;;;;;11.93;2.13;;;3.60;99.90;;;;;;5029685;28;20029;-52
2023/12/27 04:24:16;;;;;;;8.38;2.58;;;3.60;99.90;;;;;;5032453;28;20037;-52
2023/12/27 04:26:42;;;;;;;12.77;2.00;;;3.60;99.90;;;;;;5034556;28;20087;-52
2023/12/27 04:29:09;;;;;;;9.35;1.83;;;3.60;99.90;;;;;;5034106;28;20017;-52
2023/12/27 04:31:37;;;;;;;13.40;2.80;;;3.60;99.90;;;;;;5034105;28;20080;-53
2023/12/27 04:34:02;;;;;;;7.68;2.22;;;3.60;99.90;;;;;;5033207;28;20022;-50
2023/12/27 04:36:28;;;;;;;14.00;2.03;;;3.60;99.90;;;;;;5033853;28;20399;-53
2023/12/27 04:38:54;;;;;;;17.58;2.92;;;3.60;99.90;;;;;;5016065;28;20033;-50
2023/12/27 04:41:19;;;;;;;11.35;2.05;;;3.60;99.90;;;;;;5034190;28;20029;-51
2023/12/27 04:43:45;;;;;;;6.95;2.13;;;3.50;99.90;;;;;;5035003;28;20056;-52
2023/12/27 04:46:10;;;;;;;9.05;2.17;;;3.60;99.90;;;;;;5033947;28;20060;-53
2023/12/27 04:48:36;;;;;;;13.80;3.67;;;3.50;99.90;;;;;;5033800;28;20104;-52
2023/12/27 04:51:02;;;;;;;10.55;2.25;;;3.50;99.90;;;;;;5034662;28;20021;-52
2023/12/27 04:53:27;;;;;;;15.88;4.18;;;3.50;99.90;;;;;;5033874;28;20091;-52
2023/12/27 04:55:53;;;;;;;19.77;3.13;;;3.50;99.90;;;;;;5034958;28;20526;-53
2023/12/27 04:58:19;;;;;;;11.25;3.13;;;3.50;99.90;;;;;;5033605;28;20113;-51
2023/12/27 05:00:45;;;;;;;9.93;2.50;;;3.50;99.90;;;;;;5035025;28;20510;-52
2023/12/27 05:03:10;;;;;;;10.40;1.70;;;3.50;99.90;;;;;;5034217;28;20026;-51
2023/12/27 05:05:36;;;;;;;8.52;2.20;;;3.50;99.90;;;;;;5033843;28;20061;-50
2023/12/27 05:08:02;;;;;;;13.35;2.83;;;3.50;99.90;;;;;;5034789;28;20029;-52
2023/12/27 05:10:28;;;;;;;13.98;2.20;;;3.50;99.90;;;;;;5034107;28;20482;-51
2023/12/27 05:12:53;;;;;;;14.40;2.70;;;3.50;99.90;;;;;;5035247;28;20033;-51
2023/12/27 05:15:19;;;;;;;12.40;2.38;;;3.50;99.90;;;;;;5033942;28;20022;-49
2023/12/27 05:17:45;;;;;;;15.23;2.58;;;3.50;99.90;;;;;;5035027;28;20032;-49
2023/12/27 05:20:11;;;;;;;11.55;2.20;;;3.50;99.90;;;;;;5026161;28;20026;-52
2023/12/27 05:22:39;;;;;;;9.18;2.38;;;3.50;99.90;;;;;;5034684;28;20083;-52
2023/12/27 05:25:09;;;;;;;12.40;1.80;;;3.60;99.90;;;;;;5034931;28;20029;-52
2023/12/27 05:27:34;;;;;;;14.40;2.17;;;3.60;99.90;;;;;;5033613;28;20506;-53
2023/12/27 05:30:01;;;;;;;7.68;2.00;;;3.60;99.90;;;;;;5033907;28;20025;-53
2023/12/27 05:32:27;;;;;;;19.70;3.17;;;3.50;99.90;;;;;;5033885;28;20025;-53
2023/12/27 05:34:53;;;;;;;11.07;2.47;;;3.50;99.90;;;;;;5034713;28;20032;-52
2023/12/27 05:37:19;;;;;;;15.52;3.53;;;3.60;99.90;;;;;;5030588;28;20021;-53
2023/12/27 05:39:45;;;;;;;11.65;2.10;;;3.50;99.90;;;;;;5035557;28;20018;-53
2023/12/27 05:42:13;;;;;;;16.92;2.53;;;3.50;99.90;;;;;;5034024;28;20544;-53
2023/12/27 05:44:39;;;;;;;11.60;2.38;;;3.50;99.90;;;;;;5034513;28;20665;-53
2023/12/27 05:47:05;;;;;;;9.85;2.10;;;3.50;99.90;;;;;;5034648;28;20122;-52
2023/12/27 05:49:30;;;;;;;6.78;2.83;;;3.50;99.90;;;;;;5034614;28;20021;-53
2023/12/27 05:51:56;;;;;;;9.73;2.85;;;3.50;99.90;;;;;;5035779;28;20381;-53
2023/12/27 05:54:23;;;;;;;9.32;2.13;;;3.50;99.90;;;;;;5036039;28;20029;-52
2023/12/27 05:56:49;;;;;;;16.33;2.33;;;3.50;99.90;;;;;;5035559;28;20020;-52
2023/12/27 05:59:15;;;;;;;15.52;3.78;;;3.50;99.90;;;;;;5033985;28;20037;-51
2023/12/27 06:01:49;;;;;;;14.45;2.70;;;3.40;99.90;;;;;;5016184;28;20026;-53
2023/12/27 06:04:15;;;;;;;9.13;2.63;;;3.40;99.90;;;;;;5033943;28;20501;-55
2023/12/27 06:06:41;;;;;;;17.13;2.83;;;3.40;99.90;;;;;;5034319;28;20038;-52
2023/12/27 06:09:06;;;;;;;18.30;2.55;;;3.50;99.90;;;;;;5035185;28;20548;-54
2023/12/27 06:11:32;;;;;;;10.77;2.22;;;3.40;99.90;;;;;;5034210;28;20434;-53
2023/12/27 06:13:58;;;;;;;18.17;2.95;;;3.40;99.90;;;;;;5035906;28;20079;-53
2023/12/27 06:16:24;;;;;;;12.65;2.20;;;3.40;99.90;;;;;;5033808;28;20392;-53
2023/12/27 06:18:54;;;;;;;14.93;2.58;;;3.40;99.90;;;;;;5035795;28;20036;-51
2023/12/27 06:21:20;;;;;;;11.27;2.30;;;3.40;99.90;;;;;;5028627;28;20025;-51
2023/12/27 06:23:46;;;;;;;16.92;3.58;;;3.40;99.90;;;;;;5016128;28;20044;-53
2023/12/27 06:26:12;;;;;;;13.60;2.55;;;3.40;99.90;;;;;;5033903;28;20022;-53
2023/12/27 06:28:37;;;;;;;16.67;2.65;;;3.40;99.90;;;;;;5034032;28;20526;-51
2023/12/27 06:31:03;;;;;;;14.52;2.58;;;3.40;99.90;;;;;;5036056;28;20112;-52
2023/12/27 06:33:30;;;;;;;10.73;2.30;;;3.40;99.90;;;;;;5034113;28;20427;-52
2023/12/27 06:35:55;;;;;;;22.98;2.78;;;3.50;99.90;;;;;;5034837;28;20037;-51
2023/12/27 06:38:21;;;;;;;13.85;2.80;;;3.50;99.90;;;;;;5031976;28;20048;-52
2023/12/27 06:40:46;;;;;;;14.10;3.08;;;3.40;99.90;;;;;;5035763;28;20502;-52
2023/12/27 06:43:12;;;;;;;14.38;2.50;;;3.50;99.90;;;;;;5016892;28;20033;-50
2023/12/27 06:45:38;;;;;;;15.18;2.30;;;3.50;99.90;;;;;;5034044;28;20108;-52
2023/12/27 06:48:04;;;;;;;14.13;2.80;;;3.50;99.90;;;;;;5034330;28;20474;-52
2023/12/27 06:50:29;;;;;;;11.95;2.83;;;3.50;99.90;;;;;;5034266;28;20033;-53
2023/12/27 06:52:55;;;;;;;10.27;2.45;;;3.50;99.90;;;;;;5036048;28;20044;-50
2023/12/27 06:55:21;;;;;;;13.25;2.63;;;3.50;99.90;;;;;;5034226;28;20127;-53
2023/12/27 06:57:48;;;;;;;12.20;2.50;;;3.50;99.90;;;;;;5029599;28;20100;-53
2023/12/27 07:00:14;;;;;;;12.77;2.45;;;3.50;99.90;;;;;;5011124;28;20463;-53
2023/12/27 07:02:40;;;;;;;8.27;2.40;;;3.50;99.90;;;;;;5034729;28;20424;-52
2023/12/27 07:05:06;;;;;;;11.40;2.90;;;3.50;99.90;;;;;;5030475;28;20025;-53
2023/12/27 07:07:39;;;;;;;8.40;2.30;;;3.50;99.90;;;;;;5105469;27;20372;-52
2023/12/27 07:10:06;;;;;;;15.23;3.72;;;3.50;99.90;;;;;;5087497;28;20028;-51
2023/12/27 07:12:32;;;;;;;20.50;3.17;;;3.50;99.90;;;;;;5084149;28;20028;-51
2023/12/27 07:14:58;;;;;;;16.35;3.60;;;3.50;99.90;;;;;;5090125;28;20035;-51
2023/12/27 07:17:24;;;;;;;17.55;3.40;;;3.50;99.90;;;;;;5090598;28;20017;-53
2023/12/27 07:19:49;;;;;;;20.23;3.40;;;3.50;99.90;;;;;;5092608;28;20066;-52
2023/12/27 07:22:15;;;;;;;15.50;3.20;;;3.50;99.90;;;;;;5091313;28;20030;-56
2023/12/27 07:24:41;;;;;;;12.13;2.60;;;3.40;99.90;;;;;;5091079;28;20379;-52
2023/12/27 07:27:08;;;;;;;10.95;3.20;;;3.50;99.90;;;;;;5090982;28;20099;-52
2023/12/27 07:29:36;;;;;;;14.25;3.15;;;3.40;99.90;;;;;;5089885;28;20489;-51
2023/12/27 07:32:04;;;;;;;11.75;2.30;;;3.50;99.90;;;;;;5088429;28;20031;-51
2023/12/27 07:34:29;;;;;;;11.65;3.05;;;3.50;99.90;;;;;;5090727;28;20028;-53
2023/12/27 07:36:55;;;;;;;13.35;3.05;;;3.50;99.90;;;;;;5090277;28;20032;-53
2023/12/27 07:39:21;;;;;;;12.55;3.35;;;3.50;99.90;;;;;;5085596;28;20023;-53
2023/12/27 07:41:46;;;;;;;21.38;3.45;;;3.50;99.90;;;;;;5092227;28;20024;-53
2023/12/27 07:44:12;;;;;;;8.77;3.65;;;3.50;99.90;;;;;;5091835;28;20020;-52
2023/12/27 07:46:38;;;;;;;11.32;2.97;;;3.60;99.90;;;;;;5089634;28;20024;-51
2023/12/27 07:49:04;;;;;;;14.20;3.05;;;3.60;99.90;;;;;;5091947;28;20016;-52
2023/12/27 07:51:29;;;;;;;9.68;2.90;;;3.60;99.90;;;;;;5091202;28;20364;-52
2023/12/27 07:53:55;;;;;;;13.10;2.75;;;3.60;99.90;;;;;;5093963;28;20024;-53
2023/12/27 07:56:21;;;;;;;20.52;4.03;;;3.60;99.90;;;;;;5090305;28;20024;-53
2023/12/27 07:58:47;;;;;;;13.93;4.07;;;3.60;99.90;;;;;;5092261;28;20023;-51
2023/12/27 08:01:13;;;;;;;18.42;3.65;;;3.60;99.90;;;;;;5092244;28;20024;-52
2023/12/27 08:03:39;;;;;;;23.70;5.35;;;3.60;99.90;;;;;;5089863;28;20028;-53
2023/12/27 08:06:06;;;;;;;18.85;4.28;;;3.60;99.90;;;;;;5092978;28;20504;-51
2023/12/27 08:08:34;;;;;;;15.55;3.28;;;3.60;99.90;;;;;;5090420;28;20020;-53
2023/12/27 08:10:59;;;;;;;8.57;2.97;;;3.60;99.90;;;;;;5093887;28;20020;-52
2023/12/27 08:13:25;;;;;;;18.75;3.90;;;3.60;99.90;;;;;;5090930;28;20383;-53
2023/12/27 08:15:50;;;;;;;18.17;3.10;;;3.70;99.90;;;;;;5091592;28;20108;-49
2023/12/27 08:18:16;;;;;;;12.50;2.90;;;3.60;99.90;;;;;;5082207;28;20042;-50
2023/12/27 08:20:42;;;;;;;13.77;3.67;;;3.70;99.90;;;;;;5078237;28;20481;-52
2023/12/27 08:23:08;;;;;;;13.73;3.75;;;3.70;99.90;;;;;;5079705;28;20024;-51
2023/12/27 08:25:34;;;;;;;18.02;3.67;;;3.70;99.90;;;;;;5077609;28;20029;-49
2023/12/27 08:28:01;;;;;;;12.43;4.40;;;3.70;99.90;;;;;;5080252;28;20027;-54
2023/12/27 08:30:27;;;;;;;17.10;4.63;;;3.80;99.90;;;;;;5077390;28;20016;-54
2023/12/27 08:32:53;;;;;;;17.63;3.80;;;3.70;99.90;;;;;;5079905;28;20020;-54
2023/12/27 08:35:19;;;;;;;14.35;4.57;;;3.70;99.90;;;;;;5077960;28;20028;-53
2023/12/27 08:37:44;;;;;;;14.13;2.97;;;3.80;99.90;;;;;;5078019;28;20027;-53
2023/12/27 08:40:10;;;;;;;14.18;2.90;;;3.80;99.90;;;;;;5079839;28;20035;-52
2023/12/27 08:42:36;;;;;;;18.08;3.25;;;3.80;99.90;;;;;;5074480;28;20020;-53
2023/12/27 08:45:01;;;;;;;21.08;3.97;;;3.80;99.90;;;;;;5080600;28;20024;-53
2023/12/27 08:47:27;;;;;;;16.13;3.08;;;3.90;99.90;;;;;;5076781;28;20149;-54
2023/12/27 08:49:55;;;;;;;15.30;3.00;;;3.90;99.90;;;;;;5079458;28;20028;-49
2023/12/27 08:52:21;;;;;;;18.25;3.13;;;3.90;99.90;;;;;;5077996;28;20477;-52
2023/12/27 08:54:46;;;;;;;17.92;3.65;;;4.00;99.90;;;;;;5077313;28;20031;-51
2023/12/27 08:57:12;;;;;;;16.13;3.65;;;4.00;99.90;;;;;;5078594;28;20531;-52
2023/12/27 08:59:37;;;;;;;12.98;3.00;;;4.00;99.90;;;;;;5076596;28;20062;-53
2023/12/27 09:02:03;;;;;;;19.63;2.95;;;4.10;99.90;;;;;;5079132;28;20028;-53
2023/12/27 09:04:30;;;;;;;8.73;2.58;;;4.10;99.90;;;;;;5077162;28;20036;-50
2023/12/27 09:06:55;;;;;;;13.02;2.35;;;4.20;99.90;;;;;;5079423;28;20063;-53
2023/12/27 09:09:21;;;;;;;19.85;3.42;;;4.20;99.90;;;;;;5077633;28;20028;-52
2023/12/27 09:11:47;;;;;;;15.15;2.33;;;4.30;99.90;;;;;;5078754;28;20540;-54
2023/12/27 09:14:13;;;;;;;9.65;2.50;;;4.40;99.90;;;;;;5078863;28;20461;-50
2023/12/27 09:16:39;;;;;;;13.23;2.58;;;4.50;99.90;;;;;;5075658;28;20033;-54
2023/12/27 09:19:04;;;;;;;11.40;2.33;;;4.50;99.90;;;;;;5080230;28;20477;-52
2023/12/27 09:21:30;;;;;;;13.45;3.25;;;4.60;99.90;;;;;;5075405;28;20063;-52
2023/12/27 09:23:58;;;;;;;12.35;3.13;;;4.70;99.90;;;;;;5072674;28;20036;-52
2023/12/27 09:26:23;;;;;;;19.67;3.20;;;4.80;99.90;;;;;;5070604;28;20509;-51
2023/12/27 09:28:49;;;;;;;8.80;2.25;;;4.90;99.90;;;;;;5073011;28;20032;-52
2023/12/27 09:31:15;;;;;;;11.02;2.22;;;5.00;99.90;;;;;;5078893;28;20020;-50
2023/12/27 09:33:42;;;;;;;15.02;2.95;;;5.10;99.90;;;;;;5077982;28;20032;-50
2023/12/27 09:36:08;;;;;;;6.78;2.30;;;5.20;99.90;;;;;;5078703;28;20084;-51
2023/12/27 09:38:37;;;;;;;6.97;2.35;;;5.20;99.90;;;;;;5071450;28;20028;-53
2023/12/27 09:41:03;;;;;;;8.05;1.95;;;5.30;99.90;;;;;;5069946;28;20542;-52
2023/12/27 09:43:30;;;;;;;5.75;2.20;;;5.40;99.90;;;;;;5077280;28;20131;-53
2023/12/27 09:45:56;;;;;;;7.40;2.53;;;5.50;99.90;;;;;;5080098;28;20165;-52
2023/12/27 09:48:25;;;;;;;9.35;2.20;;;5.50;99.90;;;;;;5076780;28;20509;-53
2023/12/27 09:50:51;;;;;;;16.30;3.42;;;5.60;99.90;;;;;;5079289;28;20092;-51
2023/12/27 09:53:17;;;;;;;9.30;2.15;;;5.50;99.90;;;;;;5079193;28;20016;-54
2023/12/27 09:55:44;;;;;;;14.73;3.20;;;5.60;99.90;;;;;;5078224;28;20107;-50
2023/12/27 09:58:10;;;;;;;9.50;2.63;;;5.50;99.90;;;;;;5080031;28;20035;-53
2023/12/27 10:00:37;;;;;;;14.38;3.42;;;5.60;99.90;;;;;;5077468;28;20036;-52
2023/12/27 10:03:06;;;;;;;10.45;2.67;;;5.60;99.90;;;;;;5076961;28;20509;-53
2023/12/27 10:05:58;;;;;;;7.88;2.38;;;5.50;99.90;;;;;;5071405;28;20706;-53
2023/12/27 10:08:24;;;;;;;13.38;3.33;;;5.50;99.90;;;;;;5073142;28;20016;-52
2023/12/27 10:10:51;;;;;;;10.57;2.85;;;5.40;99.90;;;;;;5078305;28;20032;-53
2023/12/27 10:13:19;;;;;;;7.93;3.15;;;5.50;99.90;;;;;;5078179;28;20027;-53
2023/12/27 10:15:46;;;;;;;8.38;2.78;;;5.50;99.90;;;;;;5077546;28;20032;-52
2023/12/27 10:18:11;;;;;;;11.18;3.40;;;5.50;99.90;;;;;;5078692;28;20378;-53
2023/12/27 10:20:38;;;;;;;7.18;3.05;;;5.50;99.90;;;;;;5077772;28;20020;-50
2023/12/27 10:23:04;;;;;;;7.03;2.83;;;5.50;99.90;;;;;;5081309;28;20099;-53
2023/12/27 10:25:30;;;;;;;8.13;2.97;;;5.60;99.90;;;;;;5077773;28;20031;-51
2023/12/27 10:27:56;;;;;;;6.93;2.35;;;5.60;99.90;;;;;;5080214;28;20017;-52
2023/12/27 10:30:22;;;;;;;11.05;3.10;;;5.60;99.90;;;;;;5079176;28;20028;-53
2023/12/27 10:33:02;;;;;;;12.98;3.58;;;5.70;99.90;;;;;;5077997;28;20059;-50
2023/12/27 10:35:28;;;;;;;16.60;3.20;;;5.70;99.90;;;;;;5078475;28;20109;-52
2023/12/27 10:38:06;;;;;;;7.68;2.83;;;5.80;99.90;;;;;;5079700;28;20987;-49
2023/12/27 10:40:33;;;;;;;6.95;2.30;;;5.80;99.90;;;;;;5077869;28;20024;-51
2023/12/27 10:42:59;;;;;;;13.90;2.83;;;5.90;99.90;;;;;;5080928;28;20095;-50
2023/12/27 10:45:25;;;;;;;12.48;2.55;;;6.00;99.90;;;;;;5078876;28;20095;-51
2023/12/27 10:47:59;;;;;;;13.25;2.55;;;6.10;99.90;;;;;;5078810;28;20073;-48
2023/12/27 10:50:26;;;;;;;7.45;2.03;;;6.20;99.90;;;;;;5078855;28;20012;-50
2023/12/27 10:52:58;;;;;;;7.80;2.40;;;6.10;99.90;;;;;;5073461;28;20052;-51
2023/12/27 10:55:27;;;;;;;8.93;2.33;;;6.20;99.90;;;;;;5078925;28;20250;-54
2023/12/27 10:57:54;;;;;;;8.60;2.05;;;6.30;99.90;;;;;;5077230;28;20021;-52
2023/12/27 11:00:24;;;;;;;10.70;2.25;;;6.40;99.90;;;;;;5077554;28;20016;-52
2023/12/27 11:02:51;;;;;;;9.90;2.20;;;6.40;99.90;;;;;;5079688;28;20470;-50
2023/12/27 11:05:28;;;;;;;9.50;2.80;;;6.40;99.90;;;;;;5080390;28;20091;-54
2023/12/27 11:07:54;;;;;;;4.85;2.45;;;6.40;99.90;;;;;;5080401;28;20101;-53
2023/12/27 11:10:22;;;;;;;12.93;2.53;;;6.50;99.90;;;;;;5080030;28;20030;-53
2023/12/27 11:12:48;;;;;;;5.55;1.98;;;6.50;99.90;;;;;;5079873;28;20050;-54
2023/12/27 11:15:15;;;;;;;17.65;2.47;;;6.40;99.90;;;;;;5081291;28;20043;-53
2023/12/27 11:17:41;;;;;;;8.18;2.45;;;6.40;99.90;;;;;;5078341;28;20059;-52
2023/12/27 11:20:09;;;;;;;7.03;2.38;;;6.40;99.90;;;;;;5081650;28;20040;-53
2023/12/27 11:22:35;;;;;;;10.70;2.83;;;6.50;99.90;;;;;;5078009;28;20024;-53
2023/12/27 11:25:01;;;;;;;9.52;1.70;;;6.50;99.90;;;;;;5071356;28;20024;-51
2023/12/27 11:27:27;;;;;;;4.68;1.70;;;6.50;99.90;;;;;;5079101;28;20020;-51
2023/12/27 11:29:54;;;;;;;10.85;2.42;;;6.50;99.90;;;;;;5080700;28;20024;-53
2023/12/27 11:32:20;;;;;;;13.45;2.28;;;6.60;99.90;;;;;;5081035;28;20031;-51
2023/12/27 11:34:46;;;;;;;10.10;2.60;;;6.60;99.90;;;;;;5079354;28;20024;-53
2023/12/27 11:37:16;;;;;;;9.73;2.40;;;6.50;99.90;;;;;;5081183;28;20028;-51
2023/12/27 11:39:48;;;;;;;15.82;3.10;;;6.60;99.90;;;;;;5078689;28;20497;-48
2023/12/27 11:42:16;;;;;;;7.80;2.38;;;6.60;99.90;;;;;;5081775;28;20149;-51
2023/12/27 11:44:54;;;;;;;6.95;1.73;;;6.60;99.90;;;;;;5078868;28;20705;-49
2023/12/27 11:47:20;;;;;;;8.18;2.78;;;6.70;99.90;;;;;;5080569;28;20024;-51
2023/12/27 11:50:10;;;;;;;7.63;2.40;;;6.70;99.90;;;;;;5079688;28;20492;-53
2023/12/27 11:52:42;;;;;;;53.20;27.95;;;6.80;99.90;;;;;;5079220;28;20024;-52
2023/12/27 11:55:23;;;;;;;27.17;10.65;;;6.80;99.90;;;;;;5076939;28;20524;-54
2023/12/27 11:57:58;;;;;;;15.27;4.60;;;6.80;99.90;;;;;;5083818;28;20020;-52
2023/12/27 12:00:26;;;;;;;18.23;3.45;;;6.90;99.90;;;;;;5083269;28;20039;-51
2023/12/27 12:02:58;;;;;;;12.23;3.30;;;6.90;99.90;;;;;;5084517;28;20013;-53
2023/12/27 12:05:55;;;;;;;10.88;2.13;;;7.00;99.90;;;;;;5084338;28;20020;-50
2023/12/27 12:08:27;;;;;;;8.95;2.25;;;7.00;99.90;;;;;;5079073;28;20065;-53
2023/12/27 12:11:11;;;;;;;11.38;2.60;;;7.00;99.90;;;;;;5085083;28;20012;-50
2023/12/27 12:13:40;;;;;;;12.32;2.78;;;7.00;99.90;;;;;;5082009;28;20024;-50
2023/12/27 12:16:07;;;;;;;9.48;2.63;;;7.00;99.90;;;;;;5083653;28;20559;-53
2023/12/27 12:18:39;;;;;;;9.15;2.47;;;7.00;99.90;;;;;;5081978;28;20508;-53
2023/12/27 12:21:05;;;;;;;9.57;2.15;;;7.00;99.90;;;;;;5071488;28;20025;-51
2023/12/27 12:23:31;;;;;;;22.63;4.57;;;7.00;99.90;;;;;;5081094;28;20052;-52
2023/12/27 12:26:01;;;;;;;13.93;2.50;;;6.90;99.90;;;;;;5079813;28;20036;-51
2023/12/27 12:28:28;;;;;;;12.85;3.47;;;6.90;99.90;;;;;;5073110;28;20107;-52
2023/12/27 12:30:58;;;;;;;10.20;2.20;;;6.80;99.90;;;;;;5080368;28;20009;-51
2023/12/27 12:33:24;;;;;;;8.90;2.70;;;6.90;99.90;;;;;;5085592;28;20042;-50
2023/12/27 12:35:55;;;;;;;10.45;2.92;;;6.90;99.90;;;;;;5078462;28;20036;-52
2023/12/27 12:38:21;;;;;;;9.20;2.28;;;6.90;99.90;;;;;;5076762;28;20114;-49
2023/12/27 12:40:50;;;;;;;9.95;2.78;;;6.90;99.90;;;;;;5076050;28;20052;-50
2023/12/27 12:43:15;;;;;;;15.10;2.70;;;6.90;99.90;;;;;;5070309;28;20017;-52
2023/12/27 12:45:42;;;;;;;11.32;2.55;;;6.90;99.90;;;;;;5068594;28;20078;-50
2023/12/27 12:48:08;;;;;;;13.98;2.72;;;6.90;99.90;;;;;;5070641;28;20436;-53